createdAt,value
2023-01-15T00:02:08.654Z,52.00
2023-01-15T00:04:37.100Z,52.30
2023-01-15T00:07:05.097Z,52.22
2023-01-15T00:09:33.122Z,52.21
2023-01-15T00:12:02.353Z,52.06
2023-01-15T00:14:31.347Z,52.17
2023-01-15T00:16:59.335Z,52.15
2023-01-15T00:19:27.292Z,52.10
2023-01-15T00:21:55.232Z,52.21
2023-01-15T00:24:41.702Z,52.33
2023-01-15T00:27:29.983Z,52.20
2023-01-15T00:29:58.128Z,52.15
2023-01-15T00:32:27.908Z,51.97
2023-01-15T00:34:58.679Z,52.12
2023-01-15T00:37:27.279Z,51.88
2023-01-15T00:39:55.369Z,51.91
2023-01-15T00:42:23.260Z,51.88
2023-01-15T00:44:51.280Z,51.83
2023-01-15T00:47:19.273Z,51.89
2023-01-15T00:49:47.160Z,51.66
2023-01-15T00:52:15.275Z,51.79
2023-01-15T00:54:43.824Z,51.58
2023-01-15T00:57:11.747Z,51.75
2023-01-15T00:59:39.649Z,51.59
2023-01-15T01:02:07.664Z,51.45
2023-01-15T01:04:36.029Z,51.40
2023-01-15T01:07:04.280Z,51.44
2023-01-15T01:09:32.483Z,51.20
2023-01-15T01:12:00.313Z,51.27
2023-01-15T01:14:29.082Z,51.17
2023-01-15T01:16:57.754Z,51.25
2023-01-15T01:19:26.985Z,51.26
2023-01-15T01:21:54.915Z,51.15
2023-01-15T01:24:24.546Z,51.13
2023-01-15T01:26:54.529Z,51.10
2023-01-15T01:29:23.858Z,51.09
2023-01-15T01:31:52.265Z,51.12
2023-01-15T01:34:20.310Z,51.29
2023-01-15T01:36:48.348Z,51.15
2023-01-15T01:39:18.479Z,51.32
2023-01-15T01:41:47.346Z,51.36
2023-01-15T01:44:34.970Z,51.40
2023-01-15T01:47:09.765Z,51.52
2023-01-15T01:49:40.323Z,51.87
2023-01-15T01:52:16.483Z,52.01
2023-01-15T01:54:49.358Z,51.92
2023-01-15T01:57:20.036Z,51.92
2023-01-15T01:59:49.033Z,51.82
2023-01-15T02:02:22.753Z,51.97
2023-01-15T02:04:52.084Z,51.97
2023-01-15T02:07:20.311Z,52.12
2023-01-15T02:09:48.498Z,51.90
2023-01-15T02:12:24.900Z,51.73
2023-01-15T02:15:03.618Z,52.07
2023-01-15T02:17:49.531Z,52.06
2023-01-15T02:20:29.436Z,52.25
2023-01-15T02:23:23.756Z,52.40
2023-01-15T02:26:12.038Z,52.48
2023-01-15T02:28:47.351Z,52.66
2023-01-15T02:31:22.149Z,52.84
2023-01-15T02:34:11.411Z,52.74
2023-01-15T02:36:44.437Z,52.84
2023-01-15T02:39:22.418Z,52.67
2023-01-15T02:41:54.175Z,52.71
2023-01-15T02:44:29.525Z,52.70
2023-01-15T02:46:59.805Z,52.64
2023-01-15T02:49:28.729Z,52.47
2023-01-15T02:52:07.670Z,52.68
2023-01-15T02:55:02.843Z,52.78
2023-01-15T02:57:35.191Z,52.73
2023-01-15T03:00:09.417Z,52.58
2023-01-15T03:02:47.070Z,52.61
2023-01-15T03:05:26.227Z,52.28
2023-01-15T03:08:00.840Z,52.10
2023-01-15T03:11:07.166Z,52.11
2023-01-15T03:13:51.969Z,52.00
2023-01-15T03:16:37.306Z,52.23
2023-01-15T03:19:24.021Z,52.26
2023-01-15T03:22:07.948Z,52.37
2023-01-15T03:24:47.291Z,52.40
2023-01-15T03:27:16.789Z,52.38
2023-01-15T03:29:51.832Z,52.48
2023-01-15T03:32:21.525Z,52.41
2023-01-15T03:34:53.017Z,52.19
2023-01-15T03:37:24.647Z,52.26
2023-01-15T03:39:53.890Z,52.23
2023-01-15T03:43:18.455Z,52.33
2023-01-15T03:45:50.793Z,52.42
2023-01-15T03:48:43.291Z,52.50
2023-01-15T03:51:23.022Z,52.53
2023-01-15T03:53:56.264Z,52.62
2023-01-15T03:56:55.681Z,52.78
2023-01-15T03:59:39.432Z,52.95
2023-01-15T04:02:12.747Z,53.31
2023-01-15T04:04:42.116Z,53.63
2023-01-15T04:07:11.222Z,53.90
2023-01-15T04:09:41.508Z,54.14
2023-01-15T04:12:12.369Z,54.37
2023-01-15T04:14:44.869Z,54.54
2023-01-15T04:17:18.272Z,54.50
2023-01-15T04:19:46.370Z,54.70
2023-01-15T04:22:14.783Z,54.94
2023-01-15T04:24:43.046Z,55.21
2023-01-15T04:27:11.152Z,55.68
2023-01-15T04:29:39.125Z,55.94
2023-01-15T04:32:08.247Z,56.60
2023-01-15T04:34:36.316Z,57.16
2023-01-15T04:37:04.285Z,57.50
2023-01-15T04:39:32.972Z,57.81
2023-01-15T04:42:20.697Z,58.19
2023-01-15T04:44:48.695Z,58.35
2023-01-15T04:47:16.612Z,58.59
2023-01-15T04:49:45.608Z,58.64
2023-01-15T04:52:14.938Z,58.39
2023-01-15T04:54:42.915Z,58.01
2023-01-15T04:57:11.617Z,57.77
2023-01-15T04:59:39.547Z,57.67
2023-01-15T05:02:07.838Z,57.34
2023-01-15T05:04:36.068Z,57.07
2023-01-15T05:07:04.928Z,56.86
2023-01-15T05:09:33.281Z,56.33
2023-01-15T05:12:02.225Z,56.14
2023-01-15T05:14:30.232Z,55.89
2023-01-15T05:16:58.179Z,55.52
2023-01-15T05:19:26.275Z,55.38
2023-01-15T05:21:54.502Z,55.19
2023-01-15T05:24:22.544Z,54.85
2023-01-15T05:26:50.708Z,54.69
2023-01-15T05:29:18.653Z,54.44
2023-01-15T05:31:46.865Z,53.96
2023-01-15T05:34:15.153Z,54.00
2023-01-15T05:36:43.269Z,54.00
2023-01-15T05:39:11.297Z,53.77
2023-01-15T05:41:52.943Z,53.76
2023-01-15T05:44:22.724Z,53.57
2023-01-15T05:46:53.257Z,53.82
2023-01-15T05:49:24.120Z,53.83
2023-01-15T05:51:53.710Z,53.98
2023-01-15T05:54:24.656Z,53.92
2023-01-15T05:56:53.318Z,54.03
2023-01-15T05:59:26.863Z,53.95
2023-01-15T06:01:55.275Z,53.86
2023-01-15T06:04:25.166Z,53.76
2023-01-15T06:06:55.148Z,53.75
2023-01-15T06:09:23.588Z,53.81
2023-01-15T06:11:51.672Z,53.63
2023-01-15T06:14:19.875Z,53.63
2023-01-15T06:16:47.968Z,53.65
2023-01-15T06:19:16.569Z,53.57
2023-01-15T06:21:44.708Z,53.68
2023-01-15T06:24:12.716Z,53.73
2023-01-15T06:26:40.737Z,53.51
2023-01-15T06:29:08.647Z,53.59
2023-01-15T06:31:36.836Z,53.63
2023-01-15T06:34:04.913Z,53.53
2023-01-15T06:36:32.858Z,53.65
2023-01-15T06:39:01.050Z,53.54
2023-01-15T06:41:47.470Z,53.34
2023-01-15T06:44:38.438Z,53.41
2023-01-15T06:47:25.134Z,53.09
2023-01-15T06:49:56.506Z,52.91
2023-01-15T06:52:26.705Z,52.94
2023-01-15T06:54:54.701Z,53.08
2023-01-15T06:57:23.615Z,52.93
2023-01-15T06:59:52.173Z,52.91
2023-01-15T07:02:21.887Z,52.74
2023-01-15T07:04:51.999Z,52.61
2023-01-15T07:07:21.041Z,52.42
2023-01-15T07:09:49.731Z,52.27
2023-01-15T07:12:19.093Z,52.62
2023-01-15T07:14:47.575Z,52.41
2023-01-15T07:17:15.873Z,52.17
2023-01-15T07:19:44.981Z,51.98
2023-01-15T07:22:13.268Z,51.79
2023-01-15T07:24:41.407Z,51.53
2023-01-15T07:27:09.293Z,51.48
2023-01-15T07:29:37.329Z,51.38
2023-01-15T07:32:05.667Z,51.32
2023-01-15T07:34:33.695Z,51.37
2023-01-15T07:37:02.000Z,51.20
2023-01-15T07:39:31.891Z,50.93
2023-01-15T07:42:19.215Z,51.02
2023-01-15T07:45:06.101Z,51.00
2023-01-15T07:47:52.842Z,50.87
2023-01-15T07:50:24.157Z,50.86
2023-01-15T07:52:53.384Z,50.59
2023-01-15T07:55:22.716Z,50.61
2023-01-15T07:57:52.452Z,50.51
2023-01-15T08:00:22.636Z,50.54
2023-01-15T08:02:51.220Z,50.42
2023-01-15T08:05:19.691Z,50.12
2023-01-15T08:07:49.298Z,50.11
2023-01-15T08:10:17.564Z,50.28
2023-01-15T08:13:04.479Z,50.24
2023-01-15T08:15:39.560Z,50.37
2023-01-15T08:18:07.691Z,50.17
2023-01-15T08:20:37.757Z,50.39
2023-01-15T08:23:05.864Z,50.41
2023-01-15T08:25:34.029Z,50.50
2023-01-15T08:28:03.537Z,50.61
2023-01-15T08:30:31.797Z,50.85
2023-01-15T08:33:03.407Z,50.79
2023-01-15T08:35:32.445Z,50.98
2023-01-15T08:38:06.569Z,50.93
2023-01-15T08:40:56.473Z,50.85
2023-01-15T08:43:26.080Z,50.86
2023-01-15T08:45:58.120Z,50.79
2023-01-15T08:48:27.877Z,50.75
2023-01-15T08:50:56.484Z,50.59
2023-01-15T08:53:24.944Z,50.50
2023-01-15T08:55:53.124Z,50.37
2023-01-15T08:58:21.235Z,50.20
2023-01-15T09:00:49.513Z,49.79
2023-01-15T09:03:17.802Z,49.60
2023-01-15T09:05:45.889Z,49.88
2023-01-15T09:08:14.081Z,49.96
2023-01-15T09:10:44.133Z,49.85
2023-01-15T09:13:12.290Z,49.95
2023-01-15T09:15:40.409Z,50.15
2023-01-15T09:18:10.822Z,50.15
2023-01-15T09:20:38.973Z,50.15
2023-01-15T09:23:06.986Z,49.92
2023-01-15T09:25:35.029Z,49.98
2023-01-15T09:28:03.140Z,49.96
2023-01-15T09:30:32.151Z,49.76
2023-01-15T09:33:01.039Z,49.96
2023-01-15T09:35:29.394Z,49.97
2023-01-15T09:37:57.980Z,50.29
2023-01-15T09:40:49.334Z,50.90
2023-01-15T09:43:55.192Z,51.58
2023-01-15T09:46:38.921Z,51.87
2023-01-15T09:49:29.654Z,52.44
2023-01-15T09:52:19.705Z,52.74
2023-01-15T09:55:17.281Z,53.12
2023-01-15T09:57:50.139Z,53.33
2023-01-15T10:00:24.654Z,53.57
2023-01-15T10:03:18.406Z,53.90
2023-01-15T10:06:11.482Z,54.51
2023-01-15T10:08:53.340Z,55.06
2023-01-15T10:12:15.852Z,55.51
2023-01-15T10:15:01.669Z,55.48
2023-01-15T10:17:42.554Z,55.57
2023-01-15T10:20:46.935Z,55.49
2023-01-15T10:23:21.370Z,55.87
2023-01-15T10:26:02.444Z,56.21
2023-01-15T10:28:46.986Z,56.45
2023-01-15T10:31:24.684Z,56.65
2023-01-15T10:34:18.053Z,56.52
2023-01-15T10:36:52.359Z,56.77
2023-01-15T10:39:37.360Z,57.10
2023-01-15T10:42:19.968Z,57.44
2023-01-15T10:44:58.826Z,57.57
2023-01-15T10:47:42.228Z,58.12
2023-01-15T10:50:19.166Z,58.53
2023-01-15T10:52:57.920Z,58.77
2023-01-15T10:55:34.104Z,58.98
2023-01-15T10:58:46.613Z,58.97
2023-01-15T11:18:35.004Z,58.89
2023-01-15T11:21:18.468Z,58.92
2023-01-15T11:25:15.603Z,58.99
2023-01-15T11:32:14.988Z,59.06
2023-01-15T11:36:54.169Z,59.06
2023-01-15T11:43:56.816Z,58.67
2023-01-15T11:47:18.679Z,58.26
2023-01-15T11:55:20.616Z,58.21
2023-01-15T11:57:36.044Z,58.27
2023-01-15T12:00:59.145Z,58.29
2023-01-15T12:03:41.928Z,57.98
2023-01-15T12:06:23.076Z,57.54
2023-01-15T12:09:02.059Z,57.36
2023-01-15T12:15:06.403Z,56.98
2023-01-15T12:15:17.405Z,57.34
2023-01-15T12:17:58.585Z,57.14
2023-01-15T12:20:36.554Z,57.14
2023-01-15T12:23:27.014Z,56.53
2023-01-15T12:26:07.374Z,56.83
2023-01-15T12:28:40.624Z,56.71
2023-01-15T12:31:17.183Z,56.63
2023-01-15T12:34:08.959Z,56.15
2023-01-15T12:37:05.560Z,56.51
2023-01-15T12:39:37.660Z,56.72
2023-01-15T12:42:39.836Z,56.59
2023-01-15T12:45:12.765Z,56.48
2023-01-15T12:48:12.874Z,56.55
2023-01-15T12:50:48.042Z,56.84
2023-01-15T12:53:43.219Z,56.53
2023-01-15T12:56:35.577Z,56.35
2023-01-15T12:59:15.947Z,56.26
2023-01-15T13:02:12.826Z,56.35
2023-01-15T13:04:57.332Z,56.29
2023-01-15T13:07:29.597Z,56.34
2023-01-15T13:10:10.889Z,56.49
2023-01-15T13:12:39.180Z,56.88
2023-01-15T13:15:07.803Z,56.90
2023-01-15T13:18:05.399Z,56.94
2023-01-15T13:20:52.218Z,57.15
2023-01-15T13:23:58.169Z,57.38
2023-01-15T13:26:45.498Z,57.48
2023-01-15T13:29:20.852Z,57.80
2023-01-15T13:31:53.529Z,58.19
2023-01-15T13:34:35.173Z,58.34
2023-01-15T13:37:14.999Z,58.30
2023-01-15T13:39:47.131Z,58.47
2023-01-15T13:42:35.561Z,58.69
2023-01-15T13:45:28.052Z,58.80
2023-01-15T13:48:16.799Z,59.15
2023-01-15T13:51:00.319Z,59.18
2023-01-15T13:53:30.954Z,59.29
2023-01-15T13:56:06.000Z,59.29
2023-01-15T13:58:40.185Z,59.42
2023-01-15T14:01:17.892Z,59.37
2023-01-15T14:04:01.484Z,59.61
2023-01-15T14:06:46.793Z,59.62
2023-01-15T14:09:24.187Z,59.26
2023-01-15T14:12:36.701Z,59.25
2023-01-15T14:15:30.051Z,59.19
2023-01-15T14:18:20.497Z,59.18
2023-01-15T14:21:19.580Z,58.83
2023-01-15T14:24:08.388Z,58.50
2023-01-15T14:27:02.112Z,58.36
2023-01-15T14:29:51.099Z,58.35
2023-01-15T14:32:49.997Z,58.36
2023-01-15T14:35:24.490Z,58.37
2023-01-15T14:38:01.570Z,58.42
2023-01-15T14:40:35.059Z,57.92
2023-01-15T14:43:17.277Z,57.94
2023-01-15T14:45:48.775Z,58.06
2023-01-15T14:48:38.019Z,58.29
2023-01-15T14:51:09.814Z,58.52
2023-01-15T14:53:59.451Z,58.42
2023-01-15T14:56:37.582Z,58.25
2023-01-15T14:59:19.269Z,58.24
2023-01-15T15:02:00.910Z,58.43
2023-01-15T15:04:34.382Z,59.01
2023-01-15T15:07:13.380Z,59.24
2023-01-15T15:10:14.598Z,59.87
2023-01-15T15:12:55.664Z,60.43
2023-01-15T15:15:41.678Z,60.79
2023-01-15T15:18:14.088Z,61.04
2023-01-15T15:20:49.069Z,61.40
2023-01-15T15:23:48.271Z,61.51
2023-01-15T15:26:24.884Z,61.77
2023-01-15T15:29:22.811Z,61.92
2023-01-15T15:31:58.375Z,62.17
2023-01-15T15:34:40.293Z,62.11
2023-01-15T15:37:19.628Z,62.53
2023-01-15T15:39:59.160Z,62.69
2023-01-15T15:43:06.150Z,62.82
2023-01-15T15:45:53.075Z,63.17
2023-01-15T15:48:41.540Z,63.00
2023-01-15T15:51:29.150Z,63.20
2023-01-15T15:54:16.368Z,63.35
2023-01-15T15:56:50.573Z,63.56
2023-01-15T15:59:31.590Z,63.96
2023-01-15T16:02:27.024Z,64.04
2023-01-15T16:04:59.052Z,64.14
2023-01-15T16:07:33.725Z,64.10
2023-01-15T16:10:18.322Z,64.05
2023-01-15T16:12:52.437Z,64.09
2023-01-15T16:15:28.635Z,63.82
2023-01-15T16:18:00.216Z,63.79
2023-01-15T16:20:36.415Z,63.72
2023-01-15T16:23:29.210Z,63.89
2023-01-15T16:26:20.016Z,63.91
2023-01-15T16:28:58.016Z,64.22
2023-01-15T16:31:28.826Z,63.94
2023-01-15T16:34:01.453Z,63.96
2023-01-15T16:36:39.798Z,64.13
2023-01-15T16:39:23.275Z,64.36
2023-01-15T16:41:57.716Z,64.98
2023-01-15T16:44:44.362Z,65.10
2023-01-15T16:47:37.656Z,65.37
2023-01-15T16:50:44.387Z,65.55
2023-01-15T16:53:42.790Z,66.01
2023-01-15T16:56:37.558Z,66.15
2023-01-15T16:59:17.558Z,66.31
2023-01-15T17:01:49.983Z,66.50
2023-01-15T17:04:35.600Z,66.49
2023-01-15T17:07:59.247Z,66.61
2023-01-15T17:16:30.393Z,66.91
2023-01-15T17:31:46.342Z,68.45
2023-01-15T17:34:14.409Z,68.55
2023-01-15T17:36:42.224Z,67.90
2023-01-15T17:39:19.145Z,68.07
2023-01-15T17:41:49.438Z,68.41
2023-01-15T17:44:17.346Z,68.70
2023-01-15T17:46:53.248Z,68.87
2023-01-15T17:49:24.439Z,69.00
2023-01-15T17:51:54.439Z,68.98
2023-01-15T17:54:43.216Z,69.20
2023-01-15T17:57:30.734Z,69.13
2023-01-15T18:00:20.866Z,69.15
2023-01-15T18:03:08.743Z,69.32
2023-01-15T18:05:39.786Z,69.20
2023-01-15T18:08:11.124Z,69.42
2023-01-15T18:10:47.352Z,69.64
2023-01-15T18:13:19.140Z,69.87
2023-01-15T18:15:54.513Z,70.23
2023-01-15T18:18:22.559Z,70.32
2023-01-15T18:20:50.407Z,70.37
2023-01-15T18:23:18.682Z,70.68
2023-01-15T18:25:47.566Z,70.63
2023-01-15T18:28:16.610Z,70.69
2023-01-15T18:30:44.511Z,71.15
2023-01-15T18:33:12.370Z,71.24
2023-01-15T18:35:40.511Z,71.22
2023-01-15T18:38:17.427Z,71.28
2023-01-15T18:40:50.630Z,71.15
2023-01-15T18:43:45.654Z,71.15
2023-01-15T18:46:38.390Z,71.11
2023-01-15T18:49:11.174Z,71.17
2023-01-15T18:51:41.301Z,71.11
2023-01-15T18:54:10.554Z,71.24
2023-01-15T18:56:47.936Z,71.23
2023-01-15T18:59:20.123Z,71.04
2023-01-15T19:01:56.428Z,71.05
2023-01-15T19:04:25.316Z,71.30
2023-01-15T19:06:54.721Z,71.45
2023-01-15T19:09:24.365Z,71.54
2023-01-15T19:11:54.737Z,71.56
2023-01-15T19:14:42.053Z,71.63
2023-01-15T19:17:33.840Z,71.60
2023-01-15T19:20:01.877Z,71.67
2023-01-15T19:22:48.597Z,71.56
2023-01-15T19:25:16.806Z,71.59
2023-01-15T19:27:58.018Z,71.52
2023-01-15T19:30:29.056Z,71.64
2023-01-15T19:32:57.098Z,71.75
2023-01-15T19:35:27.044Z,71.58
2023-01-15T19:37:55.258Z,71.45
2023-01-15T19:40:24.110Z,71.52
2023-01-15T19:43:13.446Z,71.67
2023-01-15T19:46:02.641Z,71.59
2023-01-15T19:48:52.406Z,71.75
2023-01-15T19:51:21.169Z,71.85
2023-01-15T19:53:50.229Z,71.88
2023-01-15T19:56:18.183Z,71.71
2023-01-15T19:58:47.162Z,71.70
2023-01-15T20:01:16.846Z,71.61
2023-01-15T20:03:46.702Z,71.68
2023-01-15T20:06:14.608Z,71.84
2023-01-15T20:08:46.043Z,71.95
2023-01-15T20:11:13.967Z,72.21
2023-01-15T20:13:55.068Z,72.21
2023-01-15T20:16:25.643Z,72.27
2023-01-15T20:18:56.059Z,72.41
2023-01-15T20:21:24.050Z,72.48
2023-01-15T20:23:52.986Z,72.50
2023-01-15T20:26:24.385Z,72.64
2023-01-15T20:29:01.197Z,72.42
2023-01-15T20:31:36.211Z,72.12
2023-01-15T20:34:11.149Z,71.89
2023-01-15T20:36:45.341Z,71.89
2023-01-15T20:39:16.259Z,71.84
2023-01-15T20:42:44.023Z,71.79
2023-01-15T20:45:13.067Z,71.78
2023-01-15T20:48:01.754Z,71.87
2023-01-15T20:50:34.386Z,71.86
2023-01-15T20:53:06.550Z,71.81
2023-01-15T20:55:53.932Z,71.76
2023-01-15T20:58:24.215Z,71.75
2023-01-15T21:00:56.422Z,71.66
2023-01-15T21:03:29.298Z,71.77
2023-01-15T21:05:59.366Z,71.91
2023-01-15T21:08:27.796Z,72.13
2023-01-15T21:10:56.629Z,72.19
2023-01-15T21:13:26.606Z,72.22
2023-01-15T21:16:06.247Z,72.09
2023-01-15T21:18:43.300Z,72.08
2023-01-15T21:21:14.287Z,71.87
2023-01-15T21:23:48.185Z,71.83
2023-01-15T21:26:24.406Z,71.95
2023-01-15T21:28:55.677Z,72.12
2023-01-15T21:31:57.364Z,72.12
2023-01-15T21:34:29.007Z,72.24
2023-01-15T21:36:56.946Z,72.29
2023-01-15T21:39:30.375Z,72.28
2023-01-15T21:42:17.563Z,72.22
2023-01-15T21:44:54.323Z,72.12
2023-01-15T21:47:22.322Z,72.05
2023-01-15T21:49:50.190Z,71.97
2023-01-15T21:52:20.493Z,71.89
2023-01-15T21:54:52.429Z,71.76
2023-01-15T21:57:26.228Z,71.69
2023-01-15T22:00:00.193Z,71.79
2023-01-15T22:03:40.553Z,71.86
2023-01-15T22:06:12.189Z,72.10
2023-01-15T22:08:42.110Z,72.13
2023-01-15T22:11:12.143Z,72.05
2023-01-15T22:13:41.088Z,72.07
2023-01-15T22:16:11.260Z,71.99
2023-01-15T22:18:40.986Z,72.03
2023-01-15T22:21:15.586Z,71.90
2023-01-15T22:23:45.012Z,71.88
2023-01-15T22:26:21.177Z,71.86
2023-01-15T22:28:51.589Z,71.71
2023-01-15T22:31:19.445Z,71.56
2023-01-15T22:33:47.374Z,71.36
2023-01-15T22:36:17.029Z,71.25
2023-01-15T22:38:46.197Z,71.24
2023-01-15T22:41:14.167Z,71.29
2023-01-15T22:43:42.071Z,71.35
2023-01-15T22:46:14.165Z,71.35
2023-01-15T22:48:42.209Z,71.31
2023-01-15T22:51:09.985Z,71.22
2023-01-15T22:54:14.009Z,71.28
2023-01-15T22:56:41.982Z,71.15
2023-01-15T22:59:11.746Z,71.06
2023-01-15T23:01:40.801Z,70.93
2023-01-15T23:04:18.436Z,70.96
2023-01-15T23:06:47.014Z,70.95
2023-01-15T23:09:48.099Z,70.87
2023-01-15T23:12:22.302Z,70.86
2023-01-15T23:14:50.440Z,70.79
2023-01-15T23:17:18.472Z,70.61
2023-01-15T23:19:47.311Z,70.84
2023-01-15T23:22:15.229Z,70.93
2023-01-15T23:24:43.681Z,71.05
2023-01-15T23:27:13.911Z,71.18
2023-01-15T23:29:41.773Z,71.24
2023-01-15T23:32:29.800Z,71.10
2023-01-15T23:35:02.185Z,71.23
2023-01-15T23:37:30.293Z,71.36
2023-01-15T23:39:58.386Z,71.55
2023-01-15T23:42:45.002Z,71.99
2023-01-15T23:45:31.352Z,72.03
2023-01-15T23:48:00.972Z,72.01
2023-01-15T23:50:31.095Z,72.17
2023-01-15T23:53:10.354Z,72.12
2023-01-15T23:55:42.143Z,72.00
2023-01-15T23:58:42.980Z,72.06
